createdAt,value
2022-09-28T00:03:35.315Z,98550.59
2022-09-28T00:08:43.652Z,98554.22
2022-09-28T00:14:05.366Z,98546.56
2022-09-28T00:19:12.487Z,98545.25
2022-09-28T00:24:24.065Z,98546.59
2022-09-28T00:29:34.989Z,98544.16
2022-09-28T00:34:52.699Z,98542.31
2022-09-28T00:39:59.458Z,98536.56
2022-09-28T00:45:24.988Z,98525.75
2022-09-28T00:50:34.795Z,98531.88
2022-09-28T00:56:05.350Z,98531.88
2022-09-28T01:06:39.302Z,98531.09
2022-09-28T01:11:46.161Z,98529.63
2022-09-28T01:17:25.583Z,98517.53
2022-09-28T01:22:59.113Z,98520.50
2022-09-28T01:28:15.188Z,98508.75
2022-09-28T01:33:29.192Z,98496.38
2022-09-28T01:38:54.531Z,98501.97
2022-09-28T01:44:10.789Z,98499.06
2022-09-28T01:49:23.657Z,98485.88
2022-09-28T01:55:07.368Z,98470.53
2022-09-28T02:00:33.452Z,98467.63
2022-09-28T02:05:44.942Z,98453.47
2022-09-28T02:11:04.584Z,98454.59
2022-09-28T02:16:18.150Z,98443.84
2022-09-28T02:21:40.175Z,98444.84
2022-09-28T02:26:51.032Z,98440.78
2022-09-28T02:32:01.310Z,98430.50
2022-09-28T02:37:08.817Z,98427.44
2022-09-28T02:42:23.971Z,98438.66
2022-09-28T02:48:00.689Z,98432.16
2022-09-28T02:59:02.535Z,98442.13
2022-09-28T03:04:23.680Z,98433.97
2022-09-28T03:09:35.901Z,98427.47
2022-09-28T03:14:56.121Z,98430.41
2022-09-28T03:20:14.252Z,98425.19
2022-09-28T03:25:26.496Z,98414.59
2022-09-28T03:30:45.983Z,98411.09
2022-09-28T03:35:54.597Z,98395.78
2022-09-28T03:41:01.241Z,98405.22
2022-09-28T03:46:08.304Z,98406.34
2022-09-28T03:51:23.224Z,98398.84
2022-09-28T03:56:35.597Z,98392.63
2022-09-28T04:01:42.483Z,98381.56
2022-09-28T04:07:14.261Z,98361.94
2022-09-28T04:12:31.363Z,98366.19
2022-09-28T04:17:40.365Z,98349.19
2022-09-28T04:22:50.025Z,98341.03
2022-09-28T04:33:34.633Z,98328.63
2022-09-28T04:38:59.241Z,98325.16
2022-09-28T04:44:07.270Z,98324.78
2022-09-28T04:49:20.356Z,98324.59
2022-09-28T04:54:58.598Z,98306.69
2022-09-28T05:00:04.509Z,98312.53
2022-09-28T05:05:20.813Z,98298.59
2022-09-28T05:10:31.190Z,98300.53
2022-09-28T05:15:39.310Z,98295.94
2022-09-28T05:20:50.538Z,98284.31
2022-09-28T05:26:05.289Z,98281.38
2022-09-28T05:31:11.378Z,98272.19
2022-09-28T05:36:18.016Z,98268.50
2022-09-28T05:41:26.053Z,98264.91
2022-09-28T05:46:37.746Z,98265.00
2022-09-28T05:51:43.420Z,98260.88
2022-09-28T05:57:00.087Z,98261.97
2022-09-28T06:02:08.043Z,98256.38
2022-09-28T06:07:13.596Z,98252.78
2022-09-28T06:12:23.428Z,98248.19
2022-09-28T06:17:31.166Z,98250.25
2022-09-28T06:22:55.475Z,98257.94
2022-09-28T06:28:13.938Z,98250.72
2022-09-28T06:33:21.020Z,98258.38
2022-09-28T06:38:27.785Z,98252.78
2022-09-28T06:43:37.179Z,98251.81
2022-09-28T06:48:52.360Z,98263.69
2022-09-28T06:54:02.336Z,98264.16
2022-09-28T06:59:19.855Z,98262.69
2022-09-28T07:04:27.378Z,98259.09
2022-09-28T07:09:50.244Z,98259.72
2022-09-28T07:15:06.256Z,98260.56
2022-09-28T07:20:19.569Z,98252.34
2022-09-28T07:25:44.917Z,98258.41
2022-09-28T07:31:02.135Z,98264.88
2022-09-28T07:36:13.997Z,98267.13
2022-09-28T07:41:33.424Z,98259.75
2022-09-28T07:46:39.216Z,98262.16
2022-09-28T07:51:52.717Z,98267.06
2022-09-28T07:56:59.867Z,98268.47
2022-09-28T08:02:16.454Z,98263.44
2022-09-28T08:07:31.524Z,98267.59
2022-09-28T08:12:41.226Z,98264.69
2022-09-28T08:18:02.643Z,98266.97
2022-09-28T08:23:16.870Z,98271.19
2022-09-28T08:28:28.132Z,98275.25
2022-09-28T08:33:52.426Z,98288.50
2022-09-28T08:39:09.623Z,98282.03
2022-09-28T08:44:24.432Z,98281.47
2022-09-28T08:49:36.992Z,98282.63
2022-09-28T08:54:49.678Z,98282.19
2022-09-28T09:00:11.875Z,98280.47
2022-09-28T09:05:44.473Z,98285.53
2022-09-28T09:10:55.446Z,98283.56
2022-09-28T09:16:14.514Z,98290.50
2022-09-28T09:21:41.190Z,98281.09
2022-09-28T09:27:13.239Z,98297.34
2022-09-28T09:33:17.541Z,98290.94
2022-09-28T09:38:43.313Z,98285.88
2022-09-28T09:44:16.066Z,98289.13
2022-09-28T09:49:34.779Z,98290.13
2022-09-28T09:54:48.790Z,98296.00
2022-09-28T09:59:59.370Z,98293.53
2022-09-28T10:05:21.467Z,98298.94
2022-09-28T10:10:53.270Z,98288.78
2022-09-28T10:16:06.988Z,98291.41
2022-09-28T10:21:42.830Z,98292.31
2022-09-28T10:27:00.551Z,98299.41
2022-09-28T10:32:27.035Z,98305.31
2022-09-28T10:37:34.346Z,98313.50
2022-09-28T10:42:47.587Z,98319.75
2022-09-28T10:48:18.285Z,98330.25
2022-09-28T10:53:25.203Z,98315.81
2022-09-28T10:59:08.075Z,98328.53
2022-09-28T11:04:37.092Z,98331.69
2022-09-28T11:09:52.418Z,98331.22
2022-09-28T11:15:10.870Z,98325.97
2022-09-28T11:20:46.281Z,98334.91
2022-09-28T11:26:04.714Z,98334.94
2022-09-28T11:31:32.461Z,98340.22
2022-09-28T11:37:02.111Z,98343.78
2022-09-28T11:42:25.862Z,98354.22
2022-09-28T11:47:46.676Z,98350.66
2022-09-28T11:53:00.373Z,98356.63
2022-09-28T11:58:14.633Z,98358.94
2022-09-28T12:03:40.425Z,98360.63
2022-09-28T12:08:54.419Z,98363.06
2022-09-28T12:14:06.204Z,98368.09
2022-09-28T12:19:31.956Z,98365.69
2022-09-28T12:24:45.216Z,98365.97
2022-09-28T12:29:58.427Z,98366.34
2022-09-28T12:35:14.493Z,98377.69
2022-09-28T12:40:45.949Z,98372.78
2022-09-28T12:46:13.204Z,98386.81
2022-09-28T12:51:37.653Z,98390.63
2022-09-28T12:56:58.238Z,98402.31
2022-09-28T13:02:30.421Z,98415.00
2022-09-28T13:08:03.555Z,98423.69
2022-09-28T13:13:33.417Z,98414.63
2022-09-28T13:18:45.162Z,98415.63
2022-09-28T13:24:20.718Z,98406.47
2022-09-28T13:29:29.089Z,98421.66
2022-09-28T13:34:39.900Z,98423.88
2022-09-28T13:39:58.722Z,98429.28
2022-09-28T13:45:25.117Z,98432.22
2022-09-28T13:50:46.576Z,98434.84
2022-09-28T13:56:12.935Z,98436.34
2022-09-28T14:01:26.669Z,98436.53
2022-09-28T14:06:48.770Z,98426.50
2022-09-28T14:12:31.733Z,98431.72
2022-09-28T14:18:05.114Z,98429.03
2022-09-28T14:23:45.658Z,98437.47
2022-09-28T14:29:19.054Z,98446.41
2022-09-28T14:34:46.536Z,98444.00
2022-09-28T14:40:40.167Z,98436.44
2022-09-28T14:46:01.079Z,98443.00
2022-09-28T14:51:52.116Z,98453.03
2022-09-28T14:57:17.520Z,98462.28
2022-09-28T15:02:53.964Z,98465.88
2022-09-28T15:07:59.171Z,98468.94
2022-09-28T15:13:44.519Z,98473.47
2022-09-28T15:19:30.033Z,98467.06
2022-09-28T15:30:24.974Z,98487.19
2022-09-28T15:35:44.235Z,98490.06
2022-09-28T15:41:03.045Z,98495.06
2022-09-28T15:46:13.419Z,98500.31
2022-09-28T15:51:17.682Z,98501.44
2022-09-28T16:01:47.347Z,98508.44
2022-09-28T16:07:21.265Z,98515.22
2022-09-28T16:12:28.059Z,98519.75
2022-09-28T16:17:35.073Z,98525.53
2022-09-28T16:22:38.816Z,98526.91
2022-09-28T16:27:45.000Z,98534.50
2022-09-28T16:32:53.750Z,98535.75
2022-09-28T16:38:09.839Z,98539.84
2022-09-28T16:43:20.509Z,98557.47
2022-09-28T16:48:27.695Z,98554.44
2022-09-28T16:53:48.006Z,98559.63
2022-09-28T16:58:51.110Z,98564.03
2022-09-28T17:03:55.547Z,98572.78
2022-09-28T17:08:59.225Z,98568.00
2022-09-28T17:14:03.226Z,98580.09
2022-09-28T17:19:17.945Z,98579.94
2022-09-28T17:24:21.942Z,98581.47
2022-09-28T17:29:25.031Z,98579.00
2022-09-28T17:34:29.484Z,98588.22
2022-09-28T17:39:32.573Z,98591.03
2022-09-28T17:44:36.704Z,98595.19
2022-09-28T17:49:45.844Z,98594.09
2022-09-28T17:54:49.045Z,98600.84
2022-09-28T17:59:52.267Z,98610.84
2022-09-28T18:04:56.907Z,98626.75
2022-09-28T18:10:00.240Z,98625.16
2022-09-28T18:15:03.545Z,98630.13
2022-09-28T18:20:11.248Z,98632.75
2022-09-28T18:25:14.447Z,98637.00
2022-09-28T18:30:17.528Z,98648.16
2022-09-28T18:35:23.188Z,98646.78
2022-09-28T18:40:26.664Z,98655.91
2022-09-28T18:45:29.703Z,98652.16
2022-09-28T18:50:34.431Z,98662.47
2022-09-28T18:55:38.642Z,98660.78
2022-09-28T19:00:43.070Z,98663.94
2022-09-28T19:05:47.552Z,98662.38
2022-09-28T19:17:13.996Z,98672.41
2022-09-28T19:22:18.465Z,98667.22
2022-09-28T19:32:45.737Z,98676.75
2022-09-28T19:37:51.533Z,98677.72
2022-09-28T19:42:54.542Z,98681.78
2022-09-28T19:47:59.569Z,98685.06
2022-09-28T19:53:06.823Z,98683.91
2022-09-28T19:58:09.892Z,98691.41
2022-09-28T20:03:13.069Z,98687.34
2022-09-28T20:08:19.000Z,98695.03
2022-09-28T20:13:22.901Z,98698.78
2022-09-28T20:18:27.598Z,98704.84
2022-09-28T20:23:32.620Z,98708.78
2022-09-28T20:28:36.016Z,98718.25
2022-09-28T20:33:39.435Z,98717.44
2022-09-28T20:38:44.261Z,98727.91
2022-09-28T20:43:48.116Z,98726.91
2022-09-28T20:48:52.093Z,98731.19
2022-09-28T20:53:58.681Z,98738.03
2022-09-28T20:59:01.797Z,98736.25
2022-09-28T21:04:06.939Z,98738.84
2022-09-28T21:09:12.614Z,98737.84
2022-09-28T21:14:15.689Z,98738.31
2022-09-28T21:19:18.870Z,98739.91
2022-09-28T21:24:24.026Z,98753.47
2022-09-28T21:29:37.162Z,98763.56
2022-09-28T21:34:54.794Z,98766.66
2022-09-28T21:40:23.688Z,98764.53
2022-09-28T21:45:30.706Z,98763.38
2022-09-28T21:50:44.388Z,98777.84
2022-09-28T21:56:05.928Z,98789.59
2022-09-28T22:01:18.723Z,98786.63
2022-09-28T22:06:33.311Z,98795.72
2022-09-28T22:11:43.964Z,98791.66
2022-09-28T22:16:57.002Z,98791.00
2022-09-28T22:22:07.407Z,98793.44
2022-09-28T22:27:39.093Z,98792.66
2022-09-28T22:32:59.095Z,98793.81
2022-09-28T22:38:19.127Z,98795.66
2022-09-28T22:48:56.310Z,98793.88
2022-09-28T22:54:03.446Z,98791.59
2022-09-28T22:59:30.414Z,98794.72
2022-09-28T23:04:38.499Z,98799.78
2022-09-28T23:09:45.643Z,98792.28
2022-09-28T23:14:53.008Z,98791.16
2022-09-28T23:20:01.576Z,98790.84
2022-09-28T23:25:12.977Z,98792.81
2022-09-28T23:30:42.050Z,98783.19
2022-09-28T23:35:53.457Z,98784.16
2022-09-28T23:41:01.219Z,98798.69
2022-09-28T23:46:09.938Z,98787.09
2022-09-28T23:51:26.276Z,98788.44
2022-09-28T23:56:46.126Z,98790.91
